createdAt,value
2023-01-20T00:03:22.000Z,74.20
2023-01-20T00:08:29.748Z,64.60
2023-01-20T00:13:37.363Z,66.60
2023-01-20T00:18:44.671Z,71.90
2023-01-20T00:23:52.186Z,62.70
2023-01-20T00:28:59.506Z,61.70
2023-01-20T00:34:06.717Z,67.00
2023-01-20T00:39:13.858Z,67.30
2023-01-20T00:44:21.215Z,69.30
2023-01-20T00:49:28.319Z,69.20
2023-01-20T00:54:35.391Z,65.20
2023-01-20T00:59:42.449Z,70.90
2023-01-20T01:04:52.417Z,76.10
2023-01-20T01:09:59.611Z,74.60
2023-01-20T01:15:07.891Z,74.10
2023-01-20T01:20:16.120Z,77.70
2023-01-20T01:30:29.881Z,71.60
2023-01-20T01:35:37.148Z,71.20
2023-01-20T01:40:49.419Z,65.40
2023-01-20T01:45:56.969Z,66.80
2023-01-20T01:51:08.925Z,69.20
2023-01-20T01:56:17.385Z,63.20
2023-01-20T02:01:25.820Z,65.20
2023-01-20T02:06:36.899Z,73.30
2023-01-20T02:11:48.840Z,68.00
2023-01-20T02:17:05.560Z,65.00
2023-01-20T02:22:26.676Z,66.20
2023-01-20T02:28:01.116Z,59.80
2023-01-20T02:33:13.339Z,71.40
2023-01-20T02:38:31.095Z,60.50
2023-01-20T02:43:46.479Z,71.20
2023-01-20T02:48:57.357Z,63.30
2023-01-20T02:54:08.063Z,70.60
2023-01-20T02:59:19.443Z,69.60
2023-01-20T03:04:30.670Z,60.10
2023-01-20T03:09:40.617Z,69.10
2023-01-20T03:14:48.078Z,67.50
2023-01-20T03:19:55.393Z,67.00
2023-01-20T03:25:04.612Z,59.10
2023-01-20T03:30:17.518Z,69.20
2023-01-20T03:35:25.079Z,68.70
2023-01-20T03:40:39.038Z,71.00
2023-01-20T03:45:55.985Z,64.40
2023-01-20T03:51:10.860Z,62.70
2023-01-20T03:56:23.650Z,66.90
2023-01-20T04:01:36.495Z,72.80
2023-01-20T04:06:45.397Z,71.70
2023-01-20T04:11:52.748Z,68.10
2023-01-20T04:17:00.570Z,63.50
2023-01-20T04:27:15.201Z,54.10
2023-01-20T04:32:22.377Z,75.30
2023-01-20T04:37:29.516Z,69.50
2023-01-20T04:42:36.651Z,61.40
2023-01-20T04:47:44.077Z,63.50
2023-01-20T04:52:51.293Z,60.50
2023-01-20T04:57:58.550Z,56.50
2023-01-20T05:03:06.441Z,65.00
2023-01-20T05:13:19.275Z,58.30
2023-01-20T05:18:26.485Z,52.80
2023-01-20T05:23:33.659Z,89.60
2023-01-20T05:28:41.152Z,73.20
2023-01-20T05:33:48.245Z,64.90
2023-01-20T05:38:55.433Z,62.00
2023-01-20T05:44:02.594Z,60.30
2023-01-20T05:49:11.525Z,62.00
2023-01-20T05:54:18.702Z,73.20
2023-01-20T05:59:27.136Z,51.10
2023-01-20T06:04:34.232Z,57.30
2023-01-20T06:09:41.432Z,70.60
2023-01-20T06:14:48.600Z,59.40
2023-01-20T06:19:55.927Z,61.80
2023-01-20T06:25:03.071Z,54.30
2023-01-20T06:30:12.479Z,57.40
2023-01-20T06:35:19.766Z,60.20
2023-01-20T06:40:27.059Z,54.60
2023-01-20T06:45:34.234Z,56.60
2023-01-20T06:50:41.393Z,61.10
2023-01-20T06:55:57.303Z,56.70
2023-01-20T07:01:10.336Z,65.60
2023-01-20T07:06:26.477Z,58.50
2023-01-20T07:11:35.265Z,55.80
2023-01-20T07:16:42.435Z,55.00
2023-01-20T07:21:49.680Z,57.80
2023-01-20T07:26:56.908Z,54.90
2023-01-20T07:32:04.009Z,50.10
2023-01-20T07:37:11.196Z,57.50
2023-01-20T07:42:18.369Z,54.80
2023-01-20T07:47:25.532Z,64.70
2023-01-20T07:52:32.614Z,61.40
2023-01-20T07:57:39.934Z,60.00
2023-01-20T08:02:47.095Z,49.30
2023-01-20T08:07:54.841Z,50.10
2023-01-20T08:13:02.287Z,54.10
2023-01-20T08:18:09.481Z,57.60
2023-01-20T08:23:16.637Z,58.50
2023-01-20T08:28:23.793Z,52.10
2023-01-20T08:33:30.856Z,50.60
2023-01-20T08:38:38.182Z,63.10
2023-01-20T08:43:45.331Z,64.00
2023-01-20T08:48:53.471Z,59.90
2023-01-20T08:54:01.235Z,54.50
2023-01-20T08:59:08.380Z,48.80
2023-01-20T09:04:15.777Z,53.40
2023-01-20T09:09:24.139Z,50.30
2023-01-20T09:14:31.361Z,55.00
2023-01-20T09:19:38.472Z,57.50
2023-01-20T09:24:45.541Z,54.20
2023-01-20T09:29:52.704Z,66.10
2023-01-20T09:34:59.906Z,55.60
2023-01-20T09:40:28.590Z,56.60
2023-01-20T09:51:10.126Z,50.90
2023-01-20T09:56:20.837Z,46.40
2023-01-20T10:01:33.064Z,51.40
2023-01-20T10:06:46.059Z,59.00
2023-01-20T10:11:56.886Z,46.80
2023-01-20T10:17:10.831Z,57.80
2023-01-20T10:22:22.860Z,57.10
2023-01-20T10:27:33.190Z,57.40
2023-01-20T10:32:43.906Z,59.40
2023-01-20T10:37:51.114Z,53.70
2023-01-20T10:43:00.427Z,54.40
2023-01-20T10:48:20.992Z,51.70
2023-01-20T10:53:48.728Z,51.60
2023-01-20T10:58:57.959Z,53.30
2023-01-20T11:04:05.542Z,67.70
2023-01-20T11:09:25.614Z,62.60
2023-01-20T11:14:33.804Z,58.50
2023-01-20T11:19:53.501Z,63.20
2023-01-20T11:25:02.049Z,58.90
2023-01-20T11:30:24.279Z,51.00
2023-01-20T11:35:31.495Z,46.70
2023-01-20T11:40:38.634Z,53.90
2023-01-20T11:45:45.809Z,48.10
2023-01-20T11:50:57.588Z,52.90
2023-01-20T11:56:07.343Z,53.20
2023-01-20T12:01:24.513Z,45.40
2023-01-20T12:06:34.918Z,52.40
2023-01-20T12:11:51.585Z,54.70
2023-01-20T12:17:15.650Z,53.00
2023-01-20T12:22:29.002Z,44.60
2023-01-20T12:27:44.547Z,55.90
2023-01-20T12:32:52.141Z,51.50
2023-01-20T12:38:06.652Z,57.80
2023-01-20T12:43:40.295Z,49.00
2023-01-20T12:49:32.661Z,50.00
2023-01-20T12:55:43.959Z,76.40
2023-01-20T13:01:52.414Z,51.60
2023-01-20T13:07:15.310Z,52.00
2023-01-20T13:12:47.877Z,56.10
2023-01-20T13:18:21.940Z,69.90
2023-01-20T13:23:31.600Z,62.10
2023-01-20T13:28:38.836Z,53.50
2023-01-20T13:33:46.096Z,64.60
2023-01-20T13:39:14.508Z,59.00
2023-01-20T13:44:37.740Z,61.10
2023-01-20T13:49:54.751Z,50.90
2023-01-20T13:55:04.968Z,63.50
2023-01-20T14:00:17.171Z,57.00
2023-01-20T14:05:36.888Z,59.00
2023-01-20T14:10:46.020Z,52.00
2023-01-20T14:15:57.084Z,63.00
2023-01-20T14:21:19.969Z,61.20
2023-01-20T14:26:32.386Z,62.30
2023-01-20T14:31:45.917Z,71.60
2023-01-20T14:36:58.816Z,70.80
2023-01-20T14:42:19.343Z,65.40
2023-01-20T14:47:28.754Z,63.10
2023-01-20T14:52:36.839Z,64.70
2023-01-20T14:57:45.570Z,72.90
2023-01-20T15:03:10.316Z,66.50
2023-01-20T15:08:26.530Z,83.20
2023-01-20T15:13:37.613Z,84.90
2023-01-20T15:18:45.028Z,80.60
2023-01-20T15:23:53.152Z,84.70
2023-01-20T15:29:01.015Z,76.30
2023-01-20T15:34:09.597Z,79.70
2023-01-20T15:39:17.808Z,71.70
2023-01-20T15:44:26.313Z,82.90
2023-01-20T15:49:33.732Z,82.20
2023-01-20T15:54:40.969Z,60.70
2023-01-20T15:59:49.975Z,72.90
2023-01-20T16:04:57.411Z,84.80
2023-01-20T16:10:04.727Z,85.50
2023-01-20T16:15:17.202Z,100.50
2023-01-20T16:20:27.063Z,101.30
2023-01-20T16:25:35.432Z,95.70
2023-01-20T16:30:43.150Z,108.10
2023-01-20T16:35:51.097Z,96.40
2023-01-20T16:46:05.976Z,121.40
2023-01-20T16:51:15.538Z,97.80
2023-01-20T16:56:24.843Z,111.50
2023-01-20T17:01:33.325Z,118.60
2023-01-20T17:06:41.270Z,119.90
2023-01-20T17:16:55.417Z,128.60
2023-01-20T17:22:02.611Z,105.80
2023-01-20T17:27:09.860Z,98.70
2023-01-20T17:32:18.293Z,99.30
2023-01-20T17:37:25.525Z,103.50
2023-01-20T17:42:32.777Z,92.90
2023-01-20T17:47:40.017Z,92.30
2023-01-20T17:52:47.223Z,87.40
2023-01-20T17:57:54.543Z,81.30
2023-01-20T18:03:01.849Z,93.90
2023-01-20T18:08:09.153Z,91.10
2023-01-20T18:13:16.385Z,97.80
2023-01-20T18:18:24.013Z,109.70
2023-01-20T18:23:31.309Z,106.70
2023-01-20T18:28:39.212Z,92.00
2023-01-20T18:44:07.735Z,114.50
2023-01-20T18:49:34.467Z,110.00
2023-01-20T18:54:44.538Z,99.70
2023-01-20T19:00:20.113Z,113.70
2023-01-20T19:05:28.168Z,116.60
2023-01-20T19:10:35.451Z,109.90
2023-01-20T19:15:42.629Z,121.40
2023-01-20T19:20:50.461Z,111.20
2023-01-20T19:26:05.121Z,112.80
2023-01-20T19:31:14.930Z,109.30
2023-01-20T19:36:23.653Z,116.80
2023-01-20T19:41:34.551Z,116.70
2023-01-20T19:46:42.000Z,103.10
2023-01-20T19:51:49.363Z,109.90
2023-01-20T19:56:56.855Z,95.20
2023-01-20T20:02:04.367Z,96.50
2023-01-20T20:07:12.151Z,87.60
2023-01-20T20:12:19.574Z,89.10
2023-01-20T20:17:27.230Z,94.40
2023-01-20T20:22:34.439Z,109.10
2023-01-20T20:27:41.909Z,88.60
2023-01-20T20:32:49.065Z,88.50
2023-01-20T20:37:56.223Z,95.60
2023-01-20T20:43:04.131Z,91.30
2023-01-20T20:53:19.036Z,98.90
2023-01-20T20:58:26.370Z,120.80
2023-01-20T21:03:34.613Z,98.20
2023-01-20T21:08:42.363Z,95.60
2023-01-20T21:13:50.322Z,103.80
2023-01-20T21:18:59.561Z,94.30
2023-01-20T21:24:11.048Z,94.70
2023-01-20T21:29:18.549Z,95.90
2023-01-20T21:34:25.845Z,101.80
2023-01-20T21:39:32.997Z,111.10
2023-01-20T21:44:42.639Z,90.30
2023-01-20T21:50:13.075Z,90.00
2023-01-20T21:55:22.895Z,83.70
2023-01-20T22:00:30.358Z,94.60
2023-01-20T22:05:41.020Z,80.40
2023-01-20T22:10:55.986Z,95.70
2023-01-20T22:16:06.272Z,92.40
2023-01-20T22:21:13.415Z,83.80
2023-01-20T22:26:20.803Z,82.60
2023-01-20T22:31:30.317Z,82.60
2023-01-20T22:36:38.770Z,87.80
2023-01-20T22:41:46.012Z,88.80
2023-01-20T22:46:53.210Z,96.10
2023-01-20T22:52:00.795Z,86.00
2023-01-20T22:57:07.929Z,90.00
2023-01-20T23:02:15.266Z,83.80
2023-01-20T23:07:22.424Z,76.80
2023-01-20T23:12:29.658Z,84.60
2023-01-20T23:17:37.632Z,95.40
2023-01-20T23:22:44.994Z,84.10
2023-01-20T23:27:52.229Z,70.50
2023-01-20T23:32:59.455Z,74.10
2023-01-20T23:38:07.067Z,74.40
2023-01-20T23:43:14.180Z,71.30
2023-01-20T23:48:21.301Z,61.80
2023-01-20T23:53:30.036Z,76.80
2023-01-20T23:58:37.194Z,97.40
